sensor_id;sensor_type;location;lat;lon;timestamp;pressure;altitude;pressure_sealevel;temperature;humidity
50434;BME280;36361;38.954;-9.002;2023-02-21T00:00:20;101013.47;;;13.28;100.00
50434;BME280;36361;38.954;-9.002;2023-02-21T00:01:39;101018.38;;;13.19;100.00
50434;BME280;36361;38.954;-9.002;2023-02-21T00:02:58;101026.81;;;13.11;100.00
50434;BME280;36361;38.954;-9.002;2023-02-21T00:04:18;101018.25;;;13.07;100.00
50434;BME280;36361;38.954;-9.002;2023-02-21T00:05:37;101022.09;;;13.00;100.00
50434;BME280;36361;38.954;-9.002;2023-02-21T00:06:56;101010.56;;;13.16;100.00
50434;BME280;36361;38.954;-9.002;2023-02-21T00:08:16;101012.84;;;13.01;100.00
50434;BME280;36361;38.954;-9.002;2023-02-21T00:09:37;101011.34;;;12.98;100.00
50434;BME280;36361;38.954;-9.002;2023-02-21T00:10:56;101007.78;;;12.98;100.00
50434;BME280;36361;38.954;-9.002;2023-02-21T00:12:16;101005.03;;;13.29;100.00
50434;BME280;36361;38.954;-9.002;2023-02-21T00:13:36;101010.13;;;13.26;100.00
50434;BME280;36361;38.954;-9.002;2023-02-21T00:14:55;101007.31;;;13.51;100.00
50434;BME280;36361;38.954;-9.002;2023-02-21T00:16:17;101010.28;;;13.49;100.00
50434;BME280;36361;38.954;-9.002;2023-02-21T00:17:36;101006.88;;;13.54;100.00
50434;BME280;36361;38.954;-9.002;2023-02-21T00:18:58;101010.59;;;13.41;100.00
50434;BME280;36361;38.954;-9.002;2023-02-21T00:20:17;101004.56;;;13.32;100.00
50434;BME280;36361;38.954;-9.002;2023-02-21T00:21:37;101014.38;;;13.15;100.00
50434;BME280;36361;38.954;-9.002;2023-02-21T00:22:56;101013.50;;;13.21;100.00
50434;BME280;36361;38.954;-9.002;2023-02-21T00:24:17;101013.53;;;13.15;100.00
50434;BME280;36361;38.954;-9.002;2023-02-21T00:25:36;101010.25;;;13.06;100.00
50434;BME280;36361;38.954;-9.002;2023-02-21T00:26:55;101012.00;;;13.00;100.00
50434;BME280;36361;38.954;-9.002;2023-02-21T00:28:14;101012.38;;;13.04;100.00
50434;BME280;36361;38.954;-9.002;2023-02-21T00:29:34;101006.75;;;12.99;100.00
50434;BME280;36361;38.954;-9.002;2023-02-21T00:30:53;101011.16;;;13.00;100.00
50434;BME280;36361;38.954;-9.002;2023-02-21T00:32:12;101010.69;;;13.03;100.00
50434;BME280;36361;38.954;-9.002;2023-02-21T00:33:35;101012.47;;;13.16;100.00
50434;BME280;36361;38.954;-9.002;2023-02-21T00:34:54;101005.53;;;13.20;100.00
50434;BME280;36361;38.954;-9.002;2023-02-21T00:36:16;101006.03;;;13.10;100.00
50434;BME280;36361;38.954;-9.002;2023-02-21T00:37:35;101008.91;;;13.15;100.00
50434;BME280;36361;38.954;-9.002;2023-02-21T00:38:54;101004.88;;;13.43;100.00
50434;BME280;36361;38.954;-9.002;2023-02-21T00:40:14;101006.72;;;13.49;100.00
50434;BME280;36361;38.954;-9.002;2023-02-21T00:41:34;101000.13;;;13.56;100.00
50434;BME280;36361;38.954;-9.002;2023-02-21T00:42:53;101005.66;;;13.50;100.00
50434;BME280;36361;38.954;-9.002;2023-02-21T00:44:12;101005.34;;;13.40;100.00
50434;BME280;36361;38.954;-9.002;2023-02-21T00:45:35;101000.47;;;13.42;100.00
50434;BME280;36361;38.954;-9.002;2023-02-21T00:46:54;101009.09;;;13.20;100.00
50434;BME280;36361;38.954;-9.002;2023-02-21T00:48:22;101008.91;;;13.15;100.00
50434;BME280;36361;38.954;-9.002;2023-02-21T00:49:41;101003.50;;;13.33;100.00
50434;BME280;36361;38.954;-9.002;2023-02-21T00:51:00;101008.72;;;13.17;100.00
50434;BME280;36361;38.954;-9.002;2023-02-21T00:52:19;100999.09;;;13.32;100.00
50434;BME280;36361;38.954;-9.002;2023-02-21T00:53:38;101000.25;;;13.43;100.00
50434;BME280;36361;38.954;-9.002;2023-02-21T00:54:57;100990.81;;;13.21;100.00
50434;BME280;36361;38.954;-9.002;2023-02-21T00:56:17;100992.22;;;13.48;100.00
50434;BME280;36361;38.954;-9.002;2023-02-21T00:57:36;100994.25;;;13.34;100.00
50434;BME280;36361;38.954;-9.002;2023-02-21T00:58:55;100998.66;;;13.35;100.00
50434;BME280;36361;38.954;-9.002;2023-02-21T01:00:18;100993.88;;;13.31;100.00
50434;BME280;36361;38.954;-9.002;2023-02-21T01:01:37;100997.94;;;13.22;100.00
50434;BME280;36361;38.954;-9.002;2023-02-21T01:02:57;101000.56;;;13.10;100.00
50434;BME280;36361;38.954;-9.002;2023-02-21T01:04:16;100991.91;;;13.13;100.00
50434;BME280;36361;38.954;-9.002;2023-02-21T01:05:35;100995.97;;;13.04;100.00
50434;BME280;36361;38.954;-9.002;2023-02-21T01:06:54;101002.31;;;12.98;100.00
50434;BME280;36361;38.954;-9.002;2023-02-21T01:08:13;100993.47;;;13.02;100.00
50434;BME280;36361;38.954;-9.002;2023-02-21T01:09:32;100992.22;;;12.98;100.00
50434;BME280;36361;38.954;-9.002;2023-02-21T01:10:51;100996.53;;;12.88;100.00
50434;BME280;36361;38.954;-9.002;2023-02-21T01:12:11;100991.72;;;12.90;100.00
50434;BME280;36361;38.954;-9.002;2023-02-21T01:13:30;100992.53;;;12.90;100.00
50434;BME280;36361;38.954;-9.002;2023-02-21T01:14:51;100998.44;;;12.87;100.00
50434;BME280;36361;38.954;-9.002;2023-02-21T01:16:10;100994.88;;;12.87;100.00
50434;BME280;36361;38.954;-9.002;2023-02-21T01:17:29;100997.81;;;12.85;100.00
50434;BME280;36361;38.954;-9.002;2023-02-21T01:18:48;100994.72;;;12.81;100.00
50434;BME280;36361;38.954;-9.002;2023-02-21T01:20:08;100993.25;;;12.79;100.00
50434;BME280;36361;38.954;-9.002;2023-02-21T01:21:27;100991.97;;;12.81;100.00
50434;BME280;36361;38.954;-9.002;2023-02-21T01:22:47;100992.41;;;12.78;100.00
50434;BME280;36361;38.954;-9.002;2023-02-21T01:24:09;100994.47;;;12.83;100.00
50434;BME280;36361;38.954;-9.002;2023-02-21T01:25:32;100990.50;;;12.79;100.00
50434;BME280;36361;38.954;-9.002;2023-02-21T01:26:54;100989.25;;;12.81;100.00
50434;BME280;36361;38.954;-9.002;2023-02-21T01:28:13;100989.63;;;12.85;100.00
50434;BME280;36361;38.954;-9.002;2023-02-21T01:29:36;100989.44;;;12.80;100.00
50434;BME280;36361;38.954;-9.002;2023-02-21T01:30:55;100995.81;;;12.74;100.00
50434;BME280;36361;38.954;-9.002;2023-02-21T01:32:15;100981.47;;;12.78;100.00
50434;BME280;36361;38.954;-9.002;2023-02-21T01:33:39;100991.22;;;12.68;100.00
50434;BME280;36361;38.954;-9.002;2023-02-21T01:34:59;100989.59;;;12.60;100.00
50434;BME280;36361;38.954;-9.002;2023-02-21T01:36:18;100983.38;;;12.53;100.00
50434;BME280;36361;38.954;-9.002;2023-02-21T01:37:39;100991.66;;;12.71;100.00
50434;BME280;36361;38.954;-9.002;2023-02-21T01:38:58;100990.50;;;12.54;100.00
50434;BME280;36361;38.954;-9.002;2023-02-21T01:40:18;100994.00;;;12.61;100.00
50434;BME280;36361;38.954;-9.002;2023-02-21T01:41:37;100989.59;;;12.60;100.00
50434;BME280;36361;38.954;-9.002;2023-02-21T01:42:57;100993.56;;;12.64;100.00
50434;BME280;36361;38.954;-9.002;2023-02-21T01:44:39;100987.50;;;12.62;100.00
50434;BME280;36361;38.954;-9.002;2023-02-21T01:46:05;100986.72;;;12.55;100.00
50434;BME280;36361;38.954;-9.002;2023-02-21T01:47:26;100990.94;;;12.51;100.00
50434;BME280;36361;38.954;-9.002;2023-02-21T01:48:48;100989.28;;;12.43;100.00
50434;BME280;36361;38.954;-9.002;2023-02-21T01:51:39;100984.16;;;12.29;100.00
50434;BME280;36361;38.954;-9.002;2023-02-21T01:53:02;100989.72;;;12.47;100.00
50434;BME280;36361;38.954;-9.002;2023-02-21T01:54:26;100987.19;;;12.45;100.00
50434;BME280;36361;38.954;-9.002;2023-02-21T01:55:45;100989.72;;;12.47;100.00
50434;BME280;36361;38.954;-9.002;2023-02-21T01:57:07;100989.25;;;12.50;100.00
50434;BME280;36361;38.954;-9.002;2023-02-21T01:58:29;100990.78;;;12.71;100.00
50434;BME280;36361;38.954;-9.002;2023-02-21T01:59:51;100987.59;;;12.80;100.00
50434;BME280;36361;38.954;-9.002;2023-02-21T02:01:25;100977.31;;;12.76;100.00
50434;BME280;36361;38.954;-9.002;2023-02-21T02:03:04;100992.41;;;12.78;100.00
50434;BME280;36361;38.954;-9.002;2023-02-21T02:04:23;100986.78;;;12.73;100.00
50434;BME280;36361;38.954;-9.002;2023-02-21T02:05:49;100984.94;;;12.67;100.00
50434;BME280;36361;38.954;-9.002;2023-02-21T02:07:09;100984.78;;;12.62;100.00
50434;BME280;36361;38.954;-9.002;2023-02-21T02:08:30;100984.06;;;12.73;100.00
50434;BME280;36361;38.954;-9.002;2023-02-21T02:09:49;100979.03;;;12.70;100.00
50434;BME280;36361;38.954;-9.002;2023-02-21T02:13:14;100979.59;;;12.54;100.00
50434;BME280;36361;38.954;-9.002;2023-02-21T02:20:02;100969.63;;;12.66;100.00
50434;BME280;36361;38.954;-9.002;2023-02-21T02:27:09;100975.94;;;12.35;100.00
50434;BME280;36361;38.954;-9.002;2023-02-21T02:34:57;100972.88;;;12.50;100.00
50434;BME280;36361;38.954;-9.002;2023-02-21T02:36:07;100976.31;;;12.39;100.00
50434;BME280;36361;38.954;-9.002;2023-02-21T02:37:20;100979.41;;;12.17;100.00
50434;BME280;36361;38.954;-9.002;2023-02-21T02:38:29;100967.59;;;12.23;100.00
50434;BME280;36361;38.954;-9.002;2023-02-21T02:39:40;100979.75;;;12.28;100.00
50434;BME280;36361;38.954;-9.002;2023-02-21T02:42:15;100973.50;;;12.20;100.00
50434;BME280;36361;38.954;-9.002;2023-02-21T02:43:48;100976.41;;;12.26;100.00
50434;BME280;36361;38.954;-9.002;2023-02-21T02:44:56;100967.22;;;12.13;100.00
50434;BME280;36361;38.954;-9.002;2023-02-21T02:47:18;100967.16;;;12.27;100.00
50434;BME280;36361;38.954;-9.002;2023-02-21T02:49:28;100971.56;;;12.28;100.00
50434;BME280;36361;38.954;-9.002;2023-02-21T02:50:30;100970.88;;;12.39;100.00
50434;BME280;36361;38.954;-9.002;2023-02-21T02:51:32;100967.03;;;12.46;100.00
50434;BME280;36361;38.954;-9.002;2023-02-21T02:52:35;100973.78;;;12.44;100.00
50434;BME280;36361;38.954;-9.002;2023-02-21T02:53:37;100967.53;;;12.37;100.00
50434;BME280;36361;38.954;-9.002;2023-02-21T02:54:39;100966.38;;;12.19;100.00
50434;BME280;36361;38.954;-9.002;2023-02-21T02:55:52;100970.50;;;12.29;100.00
50434;BME280;36361;38.954;-9.002;2023-02-21T02:56:57;100969.69;;;12.28;100.00
50434;BME280;36361;38.954;-9.002;2023-02-21T02:57:59;100964.50;;;12.13;100.00
50434;BME280;36361;38.954;-9.002;2023-02-21T02:59:11;100963.44;;;12.14;100.00
50434;BME280;36361;38.954;-9.002;2023-02-21T03:00:13;100963.66;;;12.13;100.00
50434;BME280;36361;38.954;-9.002;2023-02-21T03:10:44;100951.31;;;12.10;100.00
50434;BME280;36361;38.954;-9.002;2023-02-21T03:11:58;100951.66;;;12.20;100.00
50434;BME280;36361;38.954;-9.002;2023-02-21T03:14:15;100950.03;;;12.13;100.00
50434;BME280;36361;38.954;-9.002;2023-02-21T03:15:26;100942.03;;;12.18;100.00
50434;BME280;36361;38.954;-9.002;2023-02-21T03:16:33;100939.69;;;12.21;100.00
50434;BME280;36361;38.954;-9.002;2023-02-21T03:17:39;100945.00;;;12.16;100.00
50434;BME280;36361;38.954;-9.002;2023-02-21T03:18:47;100942.25;;;12.16;100.00
50434;BME280;36361;38.954;-9.002;2023-02-21T03:19:51;100943.94;;;12.17;100.00
50434;BME280;36361;38.954;-9.002;2023-02-21T03:20:56;100942.88;;;12.43;100.00
50434;BME280;36361;38.954;-9.002;2023-02-21T03:22:01;100942.44;;;12.53;100.00
50434;BME280;36361;38.954;-9.002;2023-02-21T03:23:03;100930.06;;;12.19;100.00
50434;BME280;36361;38.954;-9.002;2023-02-21T03:24:05;100942.50;;;12.08;100.00
50434;BME280;36361;38.954;-9.002;2023-02-21T03:25:07;100944.69;;;11.93;100.00
50434;BME280;36361;38.954;-9.002;2023-02-21T03:26:12;100947.88;;;11.83;100.00
50434;BME280;36361;38.954;-9.002;2023-02-21T03:27:19;100947.97;;;12.08;100.00
50434;BME280;36361;38.954;-9.002;2023-02-21T03:28:32;100944.66;;;12.00;100.00
50434;BME280;36361;38.954;-9.002;2023-02-21T03:29:34;100941.34;;;11.91;100.00
50434;BME280;36361;38.954;-9.002;2023-02-21T03:30:36;100942.75;;;12.00;100.00
50434;BME280;36361;38.954;-9.002;2023-02-21T03:31:48;100946.31;;;12.07;100.00
50434;BME280;36361;38.954;-9.002;2023-02-21T03:32:52;100937.56;;;12.23;100.00
50434;BME280;36361;38.954;-9.002;2023-02-21T03:33:55;100941.19;;;12.17;100.00
50434;BME280;36361;38.954;-9.002;2023-02-21T03:34:56;100947.66;;;11.85;100.00
50434;BME280;36361;38.954;-9.002;2023-02-21T03:35:59;100943.41;;;11.95;100.00
50434;BME280;36361;38.954;-9.002;2023-02-21T03:37:05;100942.16;;;11.98;100.00
50434;BME280;36361;38.954;-9.002;2023-02-21T03:38:06;100935.47;;;11.87;100.00
50434;BME280;36361;38.954;-9.002;2023-02-21T03:39:07;100933.31;;;11.96;100.00
50434;BME280;36361;38.954;-9.002;2023-02-21T03:40:12;100941.47;;;12.03;100.00
50434;BME280;36361;38.954;-9.002;2023-02-21T03:41:14;100948.44;;;12.30;100.00
50434;BME280;36361;38.954;-9.002;2023-02-21T03:42:15;100942.41;;;12.21;100.00
50434;BME280;36361;38.954;-9.002;2023-02-21T03:43:16;100948.31;;;12.18;100.00
50434;BME280;36361;38.954;-9.002;2023-02-21T03:44:28;100947.06;;;12.14;100.00
50434;BME280;36361;38.954;-9.002;2023-02-21T03:45:30;100940.56;;;12.15;100.00
50434;BME280;36361;38.954;-9.002;2023-02-21T03:46:47;100948.03;;;11.95;100.00
50434;BME280;36361;38.954;-9.002;2023-02-21T03:47:48;100947.06;;;11.69;100.00
50434;BME280;36361;38.954;-9.002;2023-02-21T03:48:49;100952.50;;;11.69;100.00
50434;BME280;36361;38.954;-9.002;2023-02-21T03:49:58;100942.28;;;11.65;100.00
50434;BME280;36361;38.954;-9.002;2023-02-21T03:50:59;100948.16;;;11.62;100.00
50434;BME280;36361;38.954;-9.002;2023-02-21T03:52:05;100945.63;;;11.60;100.00
50434;BME280;36361;38.954;-9.002;2023-02-21T03:53:08;100943.09;;;11.65;100.00
50434;BME280;36361;38.954;-9.002;2023-02-21T03:54:09;100951.53;;;11.57;100.00
50434;BME280;36361;38.954;-9.002;2023-02-21T03:55:18;100949.03;;;11.49;100.00
50434;BME280;36361;38.954;-9.002;2023-02-21T03:56:20;100944.47;;;11.43;100.00
50434;BME280;36361;38.954;-9.002;2023-02-21T03:57:31;100948.19;;;11.55;100.00
50434;BME280;36361;38.954;-9.002;2023-02-21T03:58:32;100945.63;;;11.60;100.00
50434;BME280;36361;38.954;-9.002;2023-02-21T03:59:33;100950.66;;;11.63;100.00
50434;BME280;36361;38.954;-9.002;2023-02-21T04:00:33;100946.13;;;11.95;100.00
50434;BME280;36361;38.954;-9.002;2023-02-21T04:01:37;100946.34;;;11.94;100.00
50434;BME280;36361;38.954;-9.002;2023-02-21T04:02:38;100945.38;;;11.68;100.00
50434;BME280;36361;38.954;-9.002;2023-02-21T04:03:42;100948.34;;;11.60;100.00
50434;BME280;36361;38.954;-9.002;2023-02-21T04:04:42;100951.44;;;11.84;100.00
50434;BME280;36361;38.954;-9.002;2023-02-21T04:05:53;100944.09;;;11.84;100.00
50434;BME280;36361;38.954;-9.002;2023-02-21T04:06:54;100948.03;;;11.95;100.00
50434;BME280;36361;38.954;-9.002;2023-02-21T04:07:55;100944.72;;;11.86;100.00
50434;BME280;36361;38.954;-9.002;2023-02-21T04:08:56;100951.44;;;11.77;100.00
50434;BME280;36361;38.954;-9.002;2023-02-21T04:09:59;100948.53;;;11.72;100.00
50434;BME280;36361;38.954;-9.002;2023-02-21T04:11:10;100952.34;;;11.64;100.00
50434;BME280;36361;38.954;-9.002;2023-02-21T04:12:10;100959.91;;;11.56;100.00
50434;BME280;36361;38.954;-9.002;2023-02-21T04:13:13;100956.59;;;11.40;100.00
50434;BME280;36361;38.954;-9.002;2023-02-21T04:14:18;100956.34;;;11.55;100.00
50434;BME280;36361;38.954;-9.002;2023-02-21T04:15:19;100956.88;;;11.77;100.00
50434;BME280;36361;38.954;-9.002;2023-02-21T04:16:20;100953.94;;;11.79;100.00
50434;BME280;36361;38.954;-9.002;2023-02-21T04:17:23;100950.59;;;11.77;100.00
50434;BME280;36361;38.954;-9.002;2023-02-21T04:18:25;100959.31;;;11.54;100.00
50434;BME280;36361;38.954;-9.002;2023-02-21T04:19:27;100950.75;;;11.37;100.00
50434;BME280;36361;38.954;-9.002;2023-02-21T04:20:29;100951.75;;;11.56;100.00
50434;BME280;36361;38.954;-9.002;2023-02-21T04:21:32;100954.09;;;11.46;100.00
50434;BME280;36361;38.954;-9.002;2023-02-21T04:22:34;100955.16;;;11.31;100.00
50434;BME280;36361;38.954;-9.002;2023-02-21T04:23:35;100955.41;;;11.17;100.00
50434;BME280;36361;38.954;-9.002;2023-02-21T04:24:36;100949.13;;;11.09;100.00
50434;BME280;36361;38.954;-9.002;2023-02-21T04:25:37;100953.31;;;11.05;100.00
50434;BME280;36361;38.954;-9.002;2023-02-21T04:26:44;100951.19;;;11.21;100.00
50434;BME280;36361;38.954;-9.002;2023-02-21T04:27:45;100954.97;;;11.20;100.00
50434;BME280;36361;38.954;-9.002;2023-02-21T04:28:46;100946.41;;;11.16;100.00
50434;BME280;36361;38.954;-9.002;2023-02-21T04:29:57;100950.19;;;11.02;100.00
50434;BME280;36361;38.954;-9.002;2023-02-21T04:30:58;100954.81;;;11.01;100.00
50434;BME280;36361;38.954;-9.002;2023-02-21T04:31:59;100953.34;;;10.99;100.00
50434;BME280;36361;38.954;-9.002;2023-02-21T04:33:00;100948.13;;;10.84;100.00
50434;BME280;36361;38.954;-9.002;2023-02-21T04:34:01;100944.34;;;10.78;100.00
50434;BME280;36361;38.954;-9.002;2023-02-21T04:35:01;100950.00;;;10.90;100.00
50434;BME280;36361;38.954;-9.002;2023-02-21T04:36:03;100954.41;;;10.91;100.00
50434;BME280;36361;38.954;-9.002;2023-02-21T04:37:14;100959.44;;;10.81;100.00
50434;BME280;36361;38.954;-9.002;2023-02-21T04:38:16;100959.63;;;10.73;100.00
50434;BME280;36361;38.954;-9.002;2023-02-21T04:39:18;100955.88;;;10.74;100.00
50434;BME280;36361;38.954;-9.002;2023-02-21T04:40:19;100954.59;;;10.96;100.00
50434;BME280;36361;38.954;-9.002;2023-02-21T04:41:22;100949.78;;;10.92;100.00
50434;BME280;36361;38.954;-9.002;2023-02-21T04:42:30;100957.53;;;11.08;100.00
50434;BME280;36361;38.954;-9.002;2023-02-21T04:43:30;100953.53;;;11.04;100.00
50434;BME280;36361;38.954;-9.002;2023-02-21T04:44:34;100957.53;;;11.08;100.00
50434;BME280;36361;38.954;-9.002;2023-02-21T04:45:39;100954.81;;;11.01;100.00
50434;BME280;36361;38.954;-9.002;2023-02-21T04:46:39;100952.91;;;11.08;100.00
50434;BME280;36361;38.954;-9.002;2023-02-21T04:47:41;100955.44;;;10.90;100.00
50434;BME280;36361;38.954;-9.002;2023-02-21T04:48:48;100947.69;;;10.87;100.00
50434;BME280;36361;38.954;-9.002;2023-02-21T04:49:49;100952.28;;;10.87;100.00
50434;BME280;36361;38.954;-9.002;2023-02-21T04:50:52;100955.88;;;10.74;100.00
50434;BME280;36361;38.954;-9.002;2023-02-21T04:51:53;100961.09;;;10.62;100.00
50434;BME280;36361;38.954;-9.002;2023-02-21T04:52:54;100943.31;;;10.73;100.00
50434;BME280;36361;38.954;-9.002;2023-02-21T04:53:55;100952.28;;;10.87;100.00
50434;BME280;36361;38.954;-9.002;2023-02-21T04:54:56;100948.53;;;10.81;100.00
50434;BME280;36361;38.954;-9.002;2023-02-21T04:55:56;100947.72;;;10.80;100.00
50434;BME280;36361;38.954;-9.002;2023-02-21T04:57:00;100956.31;;;10.71;100.00
50434;BME280;36361;38.954;-9.002;2023-02-21T04:58:01;100964.66;;;10.69;100.00
50434;BME280;36361;38.954;-9.002;2023-02-21T04:59:02;100948.31;;;10.82;100.00
50434;BME280;36361;38.954;-9.002;2023-02-21T05:00:03;100954.19;;;10.99;100.00
50434;BME280;36361;38.954;-9.002;2023-02-21T05:01:06;100962.75;;;10.96;100.00
50434;BME280;36361;38.954;-9.002;2023-02-21T05:02:08;100957.34;;;10.83;100.00
50434;BME280;36361;38.954;-9.002;2023-02-21T05:03:08;100959.22;;;10.63;100.00
50434;BME280;36361;38.954;-9.002;2023-02-21T05:04:09;100966.34;;;10.64;100.00
50434;BME280;36361;38.954;-9.002;2023-02-21T05:05:10;100962.38;;;10.79;100.00
50434;BME280;36361;38.954;-9.002;2023-02-21T05:06:19;100956.28;;;10.91;100.00
50434;BME280;36361;38.954;-9.002;2023-02-21T05:07:20;100960.91;;;10.90;100.00
50434;BME280;36361;38.954;-9.002;2023-02-21T05:08:20;100960.03;;;10.96;100.00
50434;BME280;36361;38.954;-9.002;2023-02-21T05:09:21;100956.69;;;10.94;100.00
50434;BME280;36361;38.954;-9.002;2023-02-21T05:10:22;100965.91;;;11.06;100.00
50434;BME280;36361;38.954;-9.002;2023-02-21T05:11:23;100966.31;;;11.17;100.00
50434;BME280;36361;38.954;-9.002;2023-02-21T05:12:25;100964.38;;;11.24;100.00
50434;BME280;36361;38.954;-9.002;2023-02-21T05:13:26;100964.81;;;11.21;100.00
50434;BME280;36361;38.954;-9.002;2023-02-21T05:14:27;100959.84;;;10.91;100.00
50434;BME280;36361;38.954;-9.002;2023-02-21T05:15:27;100965.06;;;10.86;100.00
50434;BME280;36361;38.954;-9.002;2023-02-21T05:16:28;100963.63;;;10.83;100.00
50434;BME280;36361;38.954;-9.002;2023-02-21T05:17:29;100969.25;;;10.75;100.00
50434;BME280;36361;38.954;-9.002;2023-02-21T05:18:29;100962.56;;;10.91;100.00
50434;BME280;36361;38.954;-9.002;2023-02-21T05:19:30;100966.75;;;10.87;100.00
50434;BME280;36361;38.954;-9.002;2023-02-21T05:20:31;100965.50;;;10.70;100.00
50434;BME280;36361;38.954;-9.002;2023-02-21T05:21:34;100966.75;;;10.87;100.00
50434;BME280;36361;38.954;-9.002;2023-02-21T05:22:41;100961.72;;;10.97;100.00
50434;BME280;36361;38.954;-9.002;2023-02-21T05:23:42;100970.31;;;10.94;100.00
50434;BME280;36361;38.954;-9.002;2023-02-21T05:24:55;100970.53;;;10.79;100.00
50434;BME280;36361;38.954;-9.002;2023-02-21T05:25:55;100965.50;;;10.76;100.00
50434;BME280;36361;38.954;-9.002;2023-02-21T05:26:56;100966.75;;;10.87;100.00
50434;BME280;36361;38.954;-9.002;2023-02-21T05:27:57;100971.78;;;10.70;100.00
50434;BME280;36361;38.954;-9.002;2023-02-21T05:28:58;100962.16;;;10.81;100.00
50434;BME280;36361;38.954;-9.002;2023-02-21T05:30:02;100968.44;;;10.88;100.00
50434;BME280;36361;38.954;-9.002;2023-02-21T05:31:06;100971.56;;;10.85;100.00
50434;BME280;36361;38.954;-9.002;2023-02-21T05:32:07;100967.19;;;10.97;100.00
50434;BME280;36361;38.954;-9.002;2023-02-21T05:33:08;100973.22;;;11.13;100.00
50434;BME280;36361;38.954;-9.002;2023-02-21T05:34:12;100967.78;;;11.06;100.00
50434;BME280;36361;38.954;-9.002;2023-02-21T05:35:18;100975.97;;;10.99;100.00
50434;BME280;36361;38.954;-9.002;2023-02-21T05:36:20;100973.03;;;10.94;100.00
50434;BME280;36361;38.954;-9.002;2023-02-21T05:37:23;100976.59;;;11.08;100.00
50434;BME280;36361;38.954;-9.002;2023-02-21T05:38:25;100976.81;;;11.06;100.00
50434;BME280;36361;38.954;-9.002;2023-02-21T05:39:26;100967.16;;;11.10;100.00
50434;BME280;36361;38.954;-9.002;2023-02-21T05:40:27;100975.97;;;10.99;100.00
50434;BME280;36361;38.954;-9.002;2023-02-21T05:41:27;100977.63;;;10.87;100.00
50434;BME280;36361;38.954;-9.002;2023-02-21T05:42:28;100969.69;;;10.86;100.00
50434;BME280;36361;38.954;-9.002;2023-02-21T05:43:29;100979.53;;;10.73;100.00
50434;BME280;36361;38.954;-9.002;2023-02-21T05:44:33;100977.66;;;10.74;100.00
50434;BME280;36361;38.954;-9.002;2023-02-21T05:45:34;100971.16;;;11.01;100.00
50434;BME280;36361;38.954;-9.002;2023-02-21T05:46:34;100977.00;;;11.18;100.00
50434;BME280;36361;38.954;-9.002;2023-02-21T05:47:35;100974.69;;;11.02;100.00
50434;BME280;36361;38.954;-9.002;2023-02-21T05:48:36;100971.75;;;11.03;100.00
50434;BME280;36361;38.954;-9.002;2023-02-21T05:49:36;100977.22;;;10.90;100.00
50434;BME280;36361;38.954;-9.002;2023-02-21T05:50:37;100969.69;;;10.92;100.00
50434;BME280;36361;38.954;-9.002;2023-02-21T05:51:41;100983.53;;;10.97;100.00
50434;BME280;36361;38.954;-9.002;2023-02-21T05:52:42;100978.88;;;11.18;100.00
50434;BME280;36361;38.954;-9.002;2023-02-21T05:53:44;100978.44;;;11.21;100.00
50434;BME280;36361;38.954;-9.002;2023-02-21T05:54:45;100990.63;;;10.85;100.00
50434;BME280;36361;38.954;-9.002;2023-02-21T05:55:46;100987.72;;;10.80;100.00
50434;BME280;36361;38.954;-9.002;2023-02-21T05:56:48;100986.84;;;10.86;100.00
50434;BME280;36361;38.954;-9.002;2023-02-21T05:57:55;100982.66;;;11.03;100.00
50434;BME280;36361;38.954;-9.002;2023-02-21T05:58:56;100986.03;;;10.79;100.00
50434;BME280;36361;38.954;-9.002;2023-02-21T05:59:59;100982.25;;;11.00;100.00
50434;BME280;36361;38.954;-9.002;2023-02-21T06:01:00;100982.66;;;11.03;100.00
50434;BME280;36361;38.954;-9.002;2023-02-21T06:02:01;100987.28;;;10.70;100.00
50434;BME280;36361;38.954;-9.002;2023-02-21T06:03:02;100990.41;;;10.67;100.00
50434;BME280;36361;38.954;-9.002;2023-02-21T06:04:03;100981.84;;;10.70;100.00
50434;BME280;36361;38.954;-9.002;2023-02-21T06:05:04;100988.75;;;10.66;100.00
50434;BME280;36361;38.954;-9.002;2023-02-21T06:06:05;100986.03;;;10.79;100.00
50434;BME280;36361;38.954;-9.002;2023-02-21T06:07:06;100989.78;;;10.65;100.00
50434;BME280;36361;38.954;-9.002;2023-02-21T06:08:07;100988.75;;;10.66;100.00
50434;BME280;36361;38.954;-9.002;2023-02-21T06:09:09;100985.59;;;10.69;100.00
50434;BME280;36361;38.954;-9.002;2023-02-21T06:10:10;100991.88;;;10.76;100.00
50434;BME280;36361;38.954;-9.002;2023-02-21T06:11:11;100992.09;;;10.68;100.00
50434;BME280;36361;38.954;-9.002;2023-02-21T06:12:12;100994.81;;;10.88;100.00
50434;BME280;36361;38.954;-9.002;2023-02-21T06:13:12;100999.63;;;10.92;100.00
50434;BME280;36361;38.954;-9.002;2023-02-21T06:14:19;100990.22;;;10.75;100.00
50434;BME280;36361;38.954;-9.002;2023-02-21T06:15:20;100992.50;;;10.65;100.00
50434;BME280;36361;38.954;-9.002;2023-02-21T06:16:21;100992.72;;;10.70;100.00
50434;BME280;36361;38.954;-9.002;2023-02-21T06:17:22;100991.47;;;10.66;100.00
50434;BME280;36361;38.954;-9.002;2023-02-21T06:18:23;100996.47;;;10.56;100.00
50434;BME280;36361;38.954;-9.002;2023-02-21T06:19:24;100998.16;;;10.57;100.00
50434;BME280;36361;38.954;-9.002;2023-02-21T06:20:31;100996.47;;;10.49;100.00
50434;BME280;36361;38.954;-9.002;2023-02-21T06:21:32;100998.97;;;10.57;100.00
50434;BME280;36361;38.954;-9.002;2023-02-21T06:22:41;100990.38;;;10.40;100.00
50434;BME280;36361;38.954;-9.002;2023-02-21T06:23:41;101001.06;;;10.48;100.00
50434;BME280;36361;38.954;-9.002;2023-02-21T06:24:42;100994.81;;;10.68;100.00
50434;BME280;36361;38.954;-9.002;2023-02-21T06:25:43;100996.91;;;10.66;100.00
50434;BME280;36361;38.954;-9.002;2023-02-21T06:26:44;100991.03;;;10.62;100.00